sensor_id;sensor_type;location;lat;lon;timestamp;pressure;altitude;pressure_sealevel;temperature;humidity
80682;BME280;70045;40.200;44.582;2024-02-16T00:01:35;86207.56;;;8.16;54.70
80682;BME280;70045;40.200;44.582;2024-02-16T00:04:01;86214.41;;;8.02;54.63
80682;BME280;70045;40.200;44.582;2024-02-16T00:06:30;86213.25;;;8.03;54.63
80682;BME280;70045;40.200;44.582;2024-02-16T00:08:55;86210.25;;;8.08;54.64
80682;BME280;70045;40.200;44.582;2024-02-16T00:11:20;86200.91;;;8.18;54.95
80682;BME280;70045;40.200;44.582;2024-02-16T00:13:46;86202.34;;;8.23;54.15
80682;BME280;70045;40.200;44.582;2024-02-16T00:16:11;86204.56;;;8.21;54.85
80682;BME280;70045;40.200;44.582;2024-02-16T00:18:46;86188.38;;;8.17;54.25
80682;BME280;70045;40.200;44.582;2024-02-16T00:21:12;86199.06;;;8.19;54.45
80682;BME280;70045;40.200;44.582;2024-02-16T00:23:37;86197.94;;;8.20;54.30
80682;BME280;70045;40.200;44.582;2024-02-16T00:26:03;86193.50;;;8.20;54.85
80682;BME280;70045;40.200;44.582;2024-02-16T00:28:28;86195.03;;;8.18;55.27
80682;BME280;70045;40.200;44.582;2024-02-16T00:30:57;86192.50;;;8.10;55.30
80682;BME280;70045;40.200;44.582;2024-02-16T00:33:22;86191.44;;;8.08;55.50
80682;BME280;70045;40.200;44.582;2024-02-16T00:35:48;86178.25;;;8.02;55.97
80682;BME280;70045;40.200;44.582;2024-02-16T00:38:13;86189.94;;;8.10;56.17
80682;BME280;70045;40.200;44.582;2024-02-16T00:40:39;86191.41;;;8.11;56.43
80682;BME280;70045;40.200;44.582;2024-02-16T00:43:07;86200.97;;;8.15;56.40
80682;BME280;70045;40.200;44.582;2024-02-16T00:45:32;86204.69;;;8.10;55.84
80682;BME280;70045;40.200;44.582;2024-02-16T00:47:57;86204.75;;;8.06;55.69
80682;BME280;70045;40.200;44.582;2024-02-16T00:50:23;86206.22;;;8.07;55.77
80682;BME280;70045;40.200;44.582;2024-02-16T00:52:48;86204.03;;;8.06;56.08
80682;BME280;70045;40.200;44.582;2024-02-16T00:55:17;86204.59;;;8.17;55.24
80682;BME280;70045;40.200;44.582;2024-02-16T00:57:43;86201.00;;;8.11;55.57
80682;BME280;70045;40.200;44.582;2024-02-16T01:00:08;86211.38;;;8.07;55.67
80682;BME280;70045;40.200;44.582;2024-02-16T01:02:34;86209.47;;;8.11;55.45
80682;BME280;70045;40.200;44.582;2024-02-16T01:04:59;86208.38;;;8.13;55.72
80682;BME280;70045;40.200;44.582;2024-02-16T01:07:28;86201.63;;;8.19;56.23
80682;BME280;70045;40.200;44.582;2024-02-16T01:09:53;86205.97;;;8.25;55.38
80682;BME280;70045;40.200;44.582;2024-02-16T01:12:19;86213.34;;;8.27;55.72
80682;BME280;70045;40.200;44.582;2024-02-16T01:14:44;86214.09;;;8.24;55.87
80682;BME280;70045;40.200;44.582;2024-02-16T01:17:09;86213.72;;;8.25;55.68
80682;BME280;70045;40.200;44.582;2024-02-16T01:19:38;86227.97;;;8.37;55.91
80682;BME280;70045;40.200;44.582;2024-02-16T01:22:04;86220.84;;;8.45;55.36
80682;BME280;70045;40.200;44.582;2024-02-16T01:24:29;86237.28;;;8.58;56.17
80682;BME280;70045;40.200;44.582;2024-02-16T01:26:55;86237.53;;;8.67;55.94
80682;BME280;70045;40.200;44.582;2024-02-16T01:29:20;86243.34;;;8.75;55.35
80682;BME280;70045;40.200;44.582;2024-02-16T01:31:49;86242.19;;;8.76;55.42
80682;BME280;70045;40.200;44.582;2024-02-16T01:34:14;86242.94;;;8.77;55.51
80682;BME280;70045;40.200;44.582;2024-02-16T01:36:40;86241.41;;;8.79;55.33
80682;BME280;70045;40.200;44.582;2024-02-16T01:39:05;86244.34;;;8.81;55.45
80682;BME280;70045;40.200;44.582;2024-02-16T01:41:31;86242.72;;;8.91;55.68
80682;BME280;70045;40.200;44.582;2024-02-16T01:43:59;86236.72;;;8.98;55.60
80682;BME280;70045;40.200;44.582;2024-02-16T01:46:25;86244.63;;;9.11;55.47
80682;BME280;70045;40.200;44.582;2024-02-16T01:48:51;86246.09;;;9.12;55.24
80682;BME280;70045;40.200;44.582;2024-02-16T01:51:17;86250.06;;;9.16;54.77
80682;BME280;70045;40.200;44.582;2024-02-16T01:53:42;86251.09;;;9.22;55.16
80682;BME280;70045;40.200;44.582;2024-02-16T01:56:10;86248.84;;;9.24;55.20
80682;BME280;70045;40.200;44.582;2024-02-16T01:58:36;86250.97;;;9.30;54.78
80682;BME280;70045;40.200;44.582;2024-02-16T02:01:01;86252.38;;;9.34;54.67
80682;BME280;70045;40.200;44.582;2024-02-16T02:03:27;86257.06;;;9.43;54.70
80682;BME280;70045;40.200;44.582;2024-02-16T02:05:52;86252.53;;;9.47;55.01
80682;BME280;70045;40.200;44.582;2024-02-16T02:08:21;86256.03;;;9.37;54.71
80682;BME280;70045;40.200;44.582;2024-02-16T02:10:47;86248.41;;;9.30;55.27
80682;BME280;70045;40.200;44.582;2024-02-16T02:13:12;86250.53;;;9.11;55.31
80682;BME280;70045;40.200;44.582;2024-02-16T02:15:38;86260.03;;;8.94;55.94
80682;BME280;70045;40.200;44.582;2024-02-16T02:18:03;86256.94;;;8.79;55.79
80682;BME280;70045;40.200;44.582;2024-02-16T02:20:31;86255.59;;;8.67;56.19
80682;BME280;70045;40.200;44.582;2024-02-16T02:22:57;86261.56;;;8.64;57.11
80682;BME280;70045;40.200;44.582;2024-02-16T02:25:22;86258.34;;;8.57;56.64
80682;BME280;70045;40.200;44.582;2024-02-16T02:27:47;86268.44;;;8.47;56.87
80682;BME280;70045;40.200;44.582;2024-02-16T02:30:13;86274.06;;;8.42;57.34
80682;BME280;70045;40.200;44.582;2024-02-16T02:32:42;86268.19;;;8.35;57.55
80682;BME280;70045;40.200;44.582;2024-02-16T02:35:08;86276.13;;;8.20;57.70
80682;BME280;70045;40.200;44.582;2024-02-16T02:37:33;86272.56;;;8.10;58.02
80682;BME280;70045;40.200;44.582;2024-02-16T02:39:58;86277.75;;;8.07;57.75
80682;BME280;70045;40.200;44.582;2024-02-16T02:42:24;86272.97;;;8.05;58.39
80682;BME280;70045;40.200;44.582;2024-02-16T02:44:53;86271.56;;;8.01;57.52
80682;BME280;70045;40.200;44.582;2024-02-16T02:47:18;86272.72;;;7.96;58.33
80682;BME280;70045;40.200;44.582;2024-02-16T02:49:44;86277.28;;;7.85;58.79
80682;BME280;70045;40.200;44.582;2024-02-16T02:52:10;86275.00;;;7.90;58.07
80682;BME280;70045;40.200;44.582;2024-02-16T02:54:35;86265.41;;;7.91;58.17
80682;BME280;70045;40.200;44.582;2024-02-16T02:57:03;86262.53;;;7.85;58.22
80682;BME280;70045;40.200;44.582;2024-02-16T02:59:29;86264.78;;;7.83;58.71
80682;BME280;70045;40.200;44.582;2024-02-16T03:01:54;86261.19;;;7.73;58.78
80682;BME280;70045;40.200;44.582;2024-02-16T03:04:20;86262.72;;;7.67;58.14
80682;BME280;70045;40.200;44.582;2024-02-16T03:06:45;86261.41;;;7.52;60.08
80682;BME280;70045;40.200;44.582;2024-02-16T03:09:14;86264.41;;;7.47;59.61
80682;BME280;70045;40.200;44.582;2024-02-16T03:11:39;86267.44;;;7.38;60.05
80682;BME280;70045;40.200;44.582;2024-02-16T03:14:05;86257.88;;;7.35;60.42
80682;BME280;70045;40.200;44.582;2024-02-16T03:16:31;86249.00;;;7.40;59.11
80682;BME280;70045;40.200;44.582;2024-02-16T03:18:57;86249.69;;;7.44;59.54
80682;BME280;70045;40.200;44.582;2024-02-16T03:21:25;86244.31;;;7.27;60.32
80682;BME280;70045;40.200;44.582;2024-02-16T03:23:51;86244.59;;;7.37;59.55
80682;BME280;70045;40.200;44.582;2024-02-16T03:26:18;86241.31;;;7.32;59.53
80682;BME280;70045;40.200;44.582;2024-02-16T03:28:44;86237.38;;;7.24;59.38
80682;BME280;70045;40.200;44.582;2024-02-16T03:31:23;86229.31;;;7.15;60.24
80682;BME280;70045;40.200;44.582;2024-02-16T03:33:52;86232.94;;;7.25;59.23
80682;BME280;70045;40.200;44.582;2024-02-16T03:36:18;86238.78;;;7.29;58.34
80682;BME280;70045;40.200;44.582;2024-02-16T03:38:44;86243.13;;;7.35;58.47
80682;BME280;70045;40.200;44.582;2024-02-16T03:41:14;86238.69;;;7.40;59.12
80682;BME280;70045;40.200;44.582;2024-02-16T03:43:40;86239.72;;;7.46;58.43
80682;BME280;70045;40.200;44.582;2024-02-16T03:46:09;86240.44;;;7.50;58.68
80682;BME280;70045;40.200;44.582;2024-02-16T03:48:34;86238.22;;;7.48;58.23
80682;BME280;70045;40.200;44.582;2024-02-16T03:51:00;86247.38;;;7.53;58.58
80682;BME280;70045;40.200;44.582;2024-02-16T03:53:25;86245.84;;;7.59;57.94
80682;BME280;70045;40.200;44.582;2024-02-16T03:55:51;86247.28;;;7.64;58.07
80682;BME280;70045;40.200;44.582;2024-02-16T03:58:20;86244.25;;;7.69;57.80
80682;BME280;70045;40.200;44.582;2024-02-16T04:00:45;86252.03;;;7.65;58.11
80682;BME280;70045;40.200;44.582;2024-02-16T04:03:10;86254.59;;;7.69;57.06
80682;BME280;70045;40.200;44.582;2024-02-16T04:05:39;86262.78;;;7.64;57.39
80682;BME280;70045;40.200;44.582;2024-02-16T04:08:05;86258.44;;;7.53;58.13
80682;BME280;70045;40.200;44.582;2024-02-16T04:10:33;86267.94;;;7.60;57.48
80682;BME280;70045;40.200;44.582;2024-02-16T04:13:00;86273.09;;;7.60;58.13
80682;BME280;70045;40.200;44.582;2024-02-16T04:15:25;86269.78;;;7.60;57.77
80682;BME280;70045;40.200;44.582;2024-02-16T04:17:51;86281.97;;;7.59;57.46
80682;BME280;70045;40.200;44.582;2024-02-16T04:20:16;86279.88;;;7.47;57.78
80682;BME280;70045;40.200;44.582;2024-02-16T04:22:45;86285.94;;;7.29;57.63
80682;BME280;70045;40.200;44.582;2024-02-16T04:25:11;86284.16;;;7.23;57.46
80682;BME280;70045;40.200;44.582;2024-02-16T04:27:37;86293.81;;;7.11;56.72
80682;BME280;70045;40.200;44.582;2024-02-16T04:30:03;86298.00;;;6.94;57.43
80682;BME280;70045;40.200;44.582;2024-02-16T04:32:29;86299.84;;;6.94;57.21
80682;BME280;70045;40.200;44.582;2024-02-16T04:34:58;86301.00;;;6.89;57.68
80682;BME280;70045;40.200;44.582;2024-02-16T04:37:24;86307.56;;;6.94;57.48
80682;BME280;70045;40.200;44.582;2024-02-16T04:39:51;86314.16;;;6.98;57.43
80682;BME280;70045;40.200;44.582;2024-02-16T04:42:17;86309.38;;;7.01;57.49
80682;BME280;70045;40.200;44.582;2024-02-16T04:44:43;86324.44;;;7.06;57.22
80682;BME280;70045;40.200;44.582;2024-02-16T04:47:11;86331.44;;;7.05;57.22
80682;BME280;70045;40.200;44.582;2024-02-16T04:49:37;86332.47;;;7.11;57.65
80682;BME280;70045;40.200;44.582;2024-02-16T04:52:03;86329.47;;;7.20;56.75
80682;BME280;70045;40.200;44.582;2024-02-16T04:54:29;86332.00;;;7.24;57.10
80682;BME280;70045;40.200;44.582;2024-02-16T04:56:54;86336.03;;;7.28;57.31
80682;BME280;70045;40.200;44.582;2024-02-16T04:59:22;86346.78;;;7.20;57.65
80682;BME280;70045;40.200;44.582;2024-02-16T05:01:48;86348.22;;;7.24;57.28
80682;BME280;70045;40.200;44.582;2024-02-16T05:04:13;86353.69;;;7.33;57.40
80682;BME280;70045;40.200;44.582;2024-02-16T05:06:39;86355.16;;;7.34;57.44
80682;BME280;70045;40.200;44.582;2024-02-16T05:09:05;86368.00;;;7.42;57.89
80682;BME280;70045;40.200;44.582;2024-02-16T05:11:34;86364.88;;;7.61;57.48
80682;BME280;70045;40.200;44.582;2024-02-16T05:14:00;86365.81;;;7.82;58.04
80682;BME280;70045;40.200;44.582;2024-02-16T05:16:26;86367.09;;;8.01;57.22
80682;BME280;70045;40.200;44.582;2024-02-16T05:18:52;86377.56;;;8.21;56.75
80682;BME280;70045;40.200;44.582;2024-02-16T05:21:18;86374.84;;;8.35;56.73
80682;BME280;70045;40.200;44.582;2024-02-16T05:23:46;86376.25;;;8.43;56.57
80682;BME280;70045;40.200;44.582;2024-02-16T05:26:11;86383.22;;;8.46;56.76
80682;BME280;70045;40.200;44.582;2024-02-16T05:28:37;86381.69;;;8.53;57.43
80682;BME280;70045;40.200;44.582;2024-02-16T05:31:16;86377.84;;;8.64;56.92
80682;BME280;70045;40.200;44.582;2024-02-16T05:33:41;86381.09;;;8.72;57.08
80682;BME280;70045;40.200;44.582;2024-02-16T05:36:11;86375.81;;;8.79;56.88
80682;BME280;70045;40.200;44.582;2024-02-16T05:38:37;86371.31;;;8.87;56.22
80682;BME280;70045;40.200;44.582;2024-02-16T05:41:03;86377.34;;;9.04;55.93
80682;BME280;70045;40.200;44.582;2024-02-16T05:43:28;86383.50;;;9.14;55.08
80682;BME280;70045;40.200;44.582;2024-02-16T05:45:54;86378.28;;;9.17;55.96
80682;BME280;70045;40.200;44.582;2024-02-16T05:48:23;86381.81;;;9.31;54.91
80682;BME280;70045;40.200;44.582;2024-02-16T05:50:48;86382.13;;;9.33;55.93
80682;BME280;70045;40.200;44.582;2024-02-16T05:53:13;86368.47;;;9.32;55.53
80682;BME280;70045;40.200;44.582;2024-02-16T05:55:39;86373.88;;;9.41;55.25
80682;BME280;70045;40.200;44.582;2024-02-16T05:58:04;86376.53;;;9.61;55.15
80682;BME280;70045;40.200;44.582;2024-02-16T06:00:33;86381.25;;;9.67;55.07
80682;BME280;70045;40.200;44.582;2024-02-16T06:02:59;86379.03;;;9.69;55.19
80682;BME280;70045;40.200;44.582;2024-02-16T06:05:24;86381.88;;;9.74;55.06
80682;BME280;70045;40.200;44.582;2024-02-16T06:07:50;86387.72;;;9.78;54.38
80682;BME280;70045;40.200;44.582;2024-02-16T06:10:15;86387.00;;;9.78;54.41
80682;BME280;70045;40.200;44.582;2024-02-16T06:12:44;86373.47;;;9.67;54.72
80682;BME280;70045;40.200;44.582;2024-02-16T06:15:09;86373.59;;;9.83;53.69
80682;BME280;70045;40.200;44.582;2024-02-16T06:17:35;86373.03;;;9.95;53.94
80682;BME280;70045;40.200;44.582;2024-02-16T06:20:00;86376.59;;;10.25;53.77
80682;BME280;70045;40.200;44.582;2024-02-16T06:22:26;86382.44;;;10.29;52.67
80682;BME280;70045;40.200;44.582;2024-02-16T06:24:55;86379.81;;;10.33;52.70
80682;BME280;70045;40.200;44.582;2024-02-16T06:27:21;86381.44;;;10.47;52.54
80682;BME280;70045;40.200;44.582;2024-02-16T06:29:46;86380.97;;;10.52;53.22
80682;BME280;70045;40.200;44.582;2024-02-16T06:32:12;86385.78;;;10.50;51.81
80682;BME280;70045;40.200;44.582;2024-02-16T06:34:37;86388.13;;;10.44;52.66
80682;BME280;70045;40.200;44.582;2024-02-16T06:37:06;86387.34;;;10.47;52.44
80682;BME280;70045;40.200;44.582;2024-02-16T06:39:31;86380.56;;;10.33;53.18
80682;BME280;70045;40.200;44.582;2024-02-16T06:41:57;86385.03;;;10.29;52.57
80682;BME280;70045;40.200;44.582;2024-02-16T06:44:22;86383.78;;;10.38;52.52
80682;BME280;70045;40.200;44.582;2024-02-16T06:46:48;86378.72;;;10.30;52.77
80682;BME280;70045;40.200;44.582;2024-02-16T06:49:16;86365.69;;;10.14;52.88
80682;BME280;70045;40.200;44.582;2024-02-16T06:51:44;86381.13;;;10.21;53.57
80682;BME280;70045;40.200;44.582;2024-02-16T06:54:09;86358.06;;;10.27;52.90
80682;BME280;70045;40.200;44.582;2024-02-16T06:56:35;86369.47;;;10.29;52.25
80682;BME280;70045;40.200;44.582;2024-02-16T06:59:00;86360.50;;;10.14;53.20
80682;BME280;70045;40.200;44.582;2024-02-16T07:01:29;86363.72;;;9.98;53.55
80682;BME280;70045;40.200;44.582;2024-02-16T07:03:54;86368.22;;;9.74;54.34
80682;BME280;70045;40.200;44.582;2024-02-16T07:06:20;86358.31;;;9.69;54.62
80682;BME280;70045;40.200;44.582;2024-02-16T07:08:46;86372.25;;;9.98;54.06
80682;BME280;70045;40.200;44.582;2024-02-16T07:11:11;86362.97;;;10.21;52.91
80682;BME280;70045;40.200;44.582;2024-02-16T07:13:40;86366.81;;;10.36;52.39
80682;BME280;70045;40.200;44.582;2024-02-16T07:16:06;86366.59;;;10.47;52.52
80682;BME280;70045;40.200;44.582;2024-02-16T07:18:33;86368.00;;;10.52;52.44
80682;BME280;70045;40.200;44.582;2024-02-16T07:20:58;86363.47;;;10.56;52.22
80682;BME280;70045;40.200;44.582;2024-02-16T07:23:24;86358.34;;;10.52;52.34
80682;BME280;70045;40.200;44.582;2024-02-16T07:25:54;86353.97;;;10.69;50.72
80682;BME280;70045;40.200;44.582;2024-02-16T07:28:20;86364.84;;;10.81;50.41
80682;BME280;70045;40.200;44.582;2024-02-16T07:30:45;86359.66;;;10.81;50.48
80682;BME280;70045;40.200;44.582;2024-02-16T07:33:10;86358.19;;;10.80;50.46
80682;BME280;70045;40.200;44.582;2024-02-16T07:35:36;86354.66;;;10.90;49.88
80682;BME280;70045;40.200;44.582;2024-02-16T07:38:06;86357.13;;;11.14;49.69
80682;BME280;70045;40.200;44.582;2024-02-16T07:40:31;86346.69;;;11.17;49.56
80682;BME280;70045;40.200;44.582;2024-02-16T07:42:57;86362.03;;;10.91;48.95
80682;BME280;70045;40.200;44.582;2024-02-16T07:45:22;86365.25;;;11.16;49.75
80682;BME280;70045;40.200;44.582;2024-02-16T07:47:48;86365.59;;;11.50;49.29
80682;BME280;70045;40.200;44.582;2024-02-16T07:50:19;86365.63;;;11.67;47.07
80682;BME280;70045;40.200;44.582;2024-02-16T07:52:44;86367.56;;;11.79;46.00
80682;BME280;70045;40.200;44.582;2024-02-16T07:55:10;86363.97;;;12.06;46.86
80682;BME280;70045;40.200;44.582;2024-02-16T07:57:35;86369.94;;;12.36;45.80
80682;BME280;70045;40.200;44.582;2024-02-16T08:00:01;86351.06;;;12.48;45.11
80682;BME280;70045;40.200;44.582;2024-02-16T08:02:29;86339.22;;;12.31;45.35
80682;BME280;70045;40.200;44.582;2024-02-16T08:04:54;86354.00;;;12.63;45.58
80682;BME280;70045;40.200;44.582;2024-02-16T08:07:20;86353.53;;;12.81;45.35
80682;BME280;70045;40.200;44.582;2024-02-16T08:09:48;86350.09;;;12.84;43.97
80682;BME280;70045;40.200;44.582;2024-02-16T08:12:14;86353.22;;;12.79;43.77
80682;BME280;70045;40.200;44.582;2024-02-16T08:14:44;86349.06;;;12.94;42.87
80682;BME280;70045;40.200;44.582;2024-02-16T08:17:09;86341.38;;;13.04;44.42
80682;BME280;70045;40.200;44.582;2024-02-16T08:19:37;86341.59;;;13.09;43.85
80682;BME280;70045;40.200;44.582;2024-02-16T08:22:03;86339.13;;;13.31;43.86
80682;BME280;70045;40.200;44.582;2024-02-16T08:24:31;86333.59;;;13.29;42.76
80682;BME280;70045;40.200;44.582;2024-02-16T08:26:59;86327.28;;;13.56;42.17
80682;BME280;70045;40.200;44.582;2024-02-16T08:29:25;86332.03;;;13.70;43.08
80682;BME280;70045;40.200;44.582;2024-02-16T08:31:51;86329.69;;;13.98;41.71
80682;BME280;70045;40.200;44.582;2024-02-16T08:34:17;86330.41;;;13.51;41.08
80682;BME280;70045;40.200;44.582;2024-02-16T08:36:49;86331.63;;;13.59;40.62
80682;BME280;70045;40.200;44.582;2024-02-16T08:39:20;86329.94;;;13.78;42.48
80682;BME280;70045;40.200;44.582;2024-02-16T08:41:46;86324.72;;;13.91;41.54
80682;BME280;70045;40.200;44.582;2024-02-16T08:44:11;86318.13;;;13.99;40.63
80682;BME280;70045;40.200;44.582;2024-02-16T08:46:37;86326.56;;;14.03;42.36
80682;BME280;70045;40.200;44.582;2024-02-16T08:49:03;86310.59;;;14.01;42.55
80682;BME280;70045;40.200;44.582;2024-02-16T08:51:34;86318.88;;;13.87;42.07
80682;BME280;70045;40.200;44.582;2024-02-16T08:54:01;86311.00;;;13.52;41.89
80682;BME280;70045;40.200;44.582;2024-02-16T08:56:30;86319.97;;;13.25;40.96
80682;BME280;70045;40.200;44.582;2024-02-16T08:58:56;86318.19;;;13.22;43.43
80682;BME280;70045;40.200;44.582;2024-02-16T09:01:34;86316.28;;;13.74;40.16
80682;BME280;70045;40.200;44.582;2024-02-16T09:04:00;86310.09;;;14.28;41.29
80682;BME280;70045;40.200;44.582;2024-02-16T09:06:25;86305.59;;;14.64;39.98
80682;BME280;70045;40.200;44.582;2024-02-16T09:08:51;86283.56;;;14.65;39.50
80682;BME280;70045;40.200;44.582;2024-02-16T09:11:16;86295.16;;;14.86;39.77
80682;BME280;70045;40.200;44.582;2024-02-16T09:13:45;86294.63;;;15.00;38.99
80682;BME280;70045;40.200;44.582;2024-02-16T09:16:10;86296.06;;;15.01;38.16
80682;BME280;70045;40.200;44.582;2024-02-16T09:18:36;86296.25;;;15.07;40.13
80682;BME280;70045;40.200;44.582;2024-02-16T09:21:01;86293.94;;;15.09;39.77
80682;BME280;70045;40.200;44.582;2024-02-16T09:23:27;86293.94;;;15.09;39.64
80682;BME280;70045;40.200;44.582;2024-02-16T09:25:57;86275.97;;;15.11;38.86
80682;BME280;70045;40.200;44.582;2024-02-16T09:28:23;86280.66;;;15.25;37.31
80682;BME280;70045;40.200;44.582;2024-02-16T09:30:48;86276.34;;;15.41;37.94
80682;BME280;70045;40.200;44.582;2024-02-16T09:33:14;86272.19;;;15.53;37.83
80682;BME280;70045;40.200;44.582;2024-02-16T09:35:40;86251.91;;;15.25;39.59
80682;BME280;70045;40.200;44.582;2024-02-16T09:38:09;86265.69;;;15.17;38.88
80682;BME280;70045;40.200;44.582;2024-02-16T09:40:34;86246.00;;;14.94;40.12
80682;BME280;70045;40.200;44.582;2024-02-16T09:43:00;86259.38;;;15.36;39.47
80682;BME280;70045;40.200;44.582;2024-02-16T09:45:26;86258.78;;;14.92;38.98
80682;BME280;70045;40.200;44.582;2024-02-16T09:47:57;86257.53;;;15.05;40.26
80682;BME280;70045;40.200;44.582;2024-02-16T09:50:26;86266.34;;;16.08;39.53
80682;BME280;70045;40.200;44.582;2024-02-16T09:52:52;86260.38;;;16.72;38.09
80682;BME280;70045;40.200;44.582;2024-02-16T09:55:17;86255.88;;;16.63;38.29
80682;BME280;70045;40.200;44.582;2024-02-16T09:57:44;86254.66;;;17.01;37.84
80682;BME280;70045;40.200;44.582;2024-02-16T10:00:10;86250.06;;;17.20;37.29
80682;BME280;70045;40.200;44.582;2024-02-16T10:02:43;86249.38;;;17.10;37.29
80682;BME280;70045;40.200;44.582;2024-02-16T10:05:14;86254.84;;;17.31;37.22
80682;BME280;70045;40.200;44.582;2024-02-16T10:07:40;86246.56;;;16.53;38.04
80682;BME280;70045;40.200;44.582;2024-02-16T10:10:05;86253.72;;;16.06;39.67
80682;BME280;70045;40.200;44.582;2024-02-16T10:12:31;86243.38;;;16.21;39.38
80682;BME280;70045;40.200;44.582;2024-02-16T10:15:00;86243.56;;;17.06;39.15
80682;BME280;70045;40.200;44.582;2024-02-16T10:17:25;86239.72;;;17.26;38.00
80682;BME280;70045;40.200;44.582;2024-02-16T10:19:58;86243.06;;;17.60;37.11
80682;BME280;70045;40.200;44.582;2024-02-16T10:22:24;86235.34;;;17.90;37.79
80682;BME280;70045;40.200;44.582;2024-02-16T10:24:49;86236.41;;;17.49;37.37
80682;BME280;70045;40.200;44.582;2024-02-16T10:27:18;86227.59;;;17.95;36.42
80682;BME280;70045;40.200;44.582;2024-02-16T10:29:44;86226.72;;;18.13;37.42
80682;BME280;70045;40.200;44.582;2024-02-16T10:32:10;86229.25;;;17.83;36.49
80682;BME280;70045;40.200;44.582;2024-02-16T10:34:38;86227.84;;;17.73;36.55
80682;BME280;70045;40.200;44.582;2024-02-16T10:37:04;86225.44;;;17.60;34.92
80682;BME280;70045;40.200;44.582;2024-02-16T10:39:33;86227.56;;;17.13;35.50
80682;BME280;70045;40.200;44.582;2024-02-16T10:42:00;86217.72;;;16.90;37.34
80682;BME280;70045;40.200;44.582;2024-02-16T10:44:28;86220.66;;;16.73;37.31
80682;BME280;70045;40.200;44.582;2024-02-16T10:46:54;86221.16;;;16.44;37.61
80682;BME280;70045;40.200;44.582;2024-02-16T10:49:20;86216.94;;;15.91;36.92
80682;BME280;70045;40.200;44.582;2024-02-16T10:51:51;86221.53;;;15.50;37.99
80682;BME280;70045;40.200;44.582;2024-02-16T10:54:19;86220.81;;;15.59;38.76
80682;BME280;70045;40.200;44.582;2024-02-16T10:56:47;86219.28;;;15.89;37.89
80682;BME280;70045;40.200;44.582;2024-02-16T10:59:12;86213.47;;;16.04;38.77
80682;BME280;70045;40.200;44.582;2024-02-16T11:01:39;86217.22;;;16.40;36.78
80682;BME280;70045;40.200;44.582;2024-02-16T11:04:15;86218.31;;;16.85;36.37
80682;BME280;70045;40.200;44.582;2024-02-16T11:09:33;86213.53;;;17.26;35.68
80682;BME280;70045;40.200;44.582;2024-02-16T11:12:00;86210.47;;;17.27;35.48
80682;BME280;70045;40.200;44.582;2024-02-16T11:17:09;86216.94;;;16.28;35.30
80682;BME280;70045;40.200;44.582;2024-02-16T11:19:36;86215.13;;;15.42;39.58
80682;BME280;70045;40.200;44.582;2024-02-16T11:22:05;86221.84;;;14.71;41.26
80682;BME280;70045;40.200;44.582;2024-02-16T11:24:35;86214.28;;;13.98;42.58
80682;BME280;70045;40.200;44.582;2024-02-16T11:27:04;86228.78;;;13.64;44.11
80682;BME280;70045;40.200;44.582;2024-02-16T11:29:31;86221.63;;;13.29;44.20
80682;BME280;70045;40.200;44.582;2024-02-16T11:31:58;86224.47;;;13.22;44.57
80682;BME280;70045;40.200;44.582;2024-02-16T11:34:24;86223.03;;;12.95;45.25
80682;BME280;70045;40.200;44.582;2024-02-16T11:36:54;86225.84;;;12.75;45.50
80682;BME280;70045;40.200;44.582;2024-02-16T11:39:21;86230.63;;;12.77;46.18
80682;BME280;70045;40.200;44.582;2024-02-16T11:41:46;86228.25;;;12.70;46.48
80682;BME280;70045;40.200;44.582;2024-02-16T11:44:15;86230.09;;;12.43;46.92
80682;BME280;70045;40.200;44.582;2024-02-16T11:46:40;86227.69;;;11.94;49.16
80682;BME280;70045;40.200;44.582;2024-02-16T11:49:16;86235.78;;;11.67;49.00
80682;BME280;70045;40.200;44.582;2024-02-16T11:51:42;86232.97;;;11.61;50.81
80682;BME280;70045;40.200;44.582;2024-02-16T11:54:10;86231.88;;;11.75;50.92
80682;BME280;70045;40.200;44.582;2024-02-16T11:56:36;86232.94;;;12.07;49.74
80682;BME280;70045;40.200;44.582;2024-02-16T11:59:01;86233.50;;;12.28;49.27
80682;BME280;70045;40.200;44.582;2024-02-16T12:01:30;86229.38;;;12.43;50.46
80682;BME280;70045;40.200;44.582;2024-02-16T12:03:55;86219.38;;;12.54;48.70
80682;BME280;70045;40.200;44.582;2024-02-16T12:06:21;86219.19;;;12.61;49.40
80682;BME280;70045;40.200;44.582;2024-02-16T12:08:46;86228.56;;;12.97;47.93
80682;BME280;70045;40.200;44.582;2024-02-16T12:11:11;86226.69;;;13.11;47.20
80682;BME280;70045;40.200;44.582;2024-02-16T12:13:44;86228.75;;;13.16;47.62
80682;BME280;70045;40.200;44.582;2024-02-16T12:16:10;86212.63;;;12.95;48.71
80682;BME280;70045;40.200;44.582;2024-02-16T12:18:36;86225.00;;;13.17;48.40
80682;BME280;70045;40.200;44.582;2024-02-16T12:21:02;86218.75;;;13.14;47.30
80682;BME280;70045;40.200;44.582;2024-02-16T12:23:29;86218.16;;;12.97;47.57
80682;BME280;70045;40.200;44.582;2024-02-16T12:25:59;86213.06;;;12.68;47.44
80682;BME280;70045;40.200;44.582;2024-02-16T12:28:29;86211.19;;;12.56;48.20
80682;BME280;70045;40.200;44.582;2024-02-16T12:30:55;86212.00;;;12.40;48.02
80682;BME280;70045;40.200;44.582;2024-02-16T12:33:22;86217.72;;;12.35;48.05
80682;BME280;70045;40.200;44.582;2024-02-16T12:35:47;86216.13;;;12.24;49.29
80682;BME280;70045;40.200;44.582;2024-02-16T12:38:17;86205.63;;;12.15;48.85
80682;BME280;70045;40.200;44.582;2024-02-16T12:40:43;86219.13;;;12.10;48.57
80682;BME280;70045;40.200;44.582;2024-02-16T12:43:08;86215.38;;;12.11;48.41
80682;BME280;70045;40.200;44.582;2024-02-16T12:45:34;86213.78;;;12.43;48.63
80682;BME280;70045;40.200;44.582;2024-02-16T12:47:59;86212.25;;;12.16;48.19
80682;BME280;70045;40.200;44.582;2024-02-16T12:50:29;86217.03;;;12.05;49.39
80682;BME280;70045;40.200;44.582;2024-02-16T12:52:55;86212.53;;;11.93;48.64
80682;BME280;70045;40.200;44.582;2024-02-16T12:55:20;86220.66;;;11.78;48.89
80682;BME280;70045;40.200;44.582;2024-02-16T12:57:46;86178.84;;;11.60;49.19